sensor_id;sensor_type;location;lat;lon;timestamp;pressure;altitude;pressure_sealevel;temperature;humidity
5753;BME280;2901;42.140;24.760;2023-04-07T00:01:18;99287.84;;;7.29;55.99
5753;BME280;2901;42.140;24.760;2023-04-07T00:03:43;99275.78;;;7.19;56.30
5753;BME280;2901;42.140;24.760;2023-04-07T00:06:09;99277.50;;;7.18;56.35
5753;BME280;2901;42.140;24.760;2023-04-07T00:08:34;99280.91;;;7.11;56.56
5753;BME280;2901;42.140;24.760;2023-04-07T00:11:00;99283.50;;;7.13;56.00
5753;BME280;2901;42.140;24.760;2023-04-07T00:13:25;99284.34;;;7.10;57.09
5753;BME280;2901;42.140;24.760;2023-04-07T00:15:51;99282.63;;;7.09;56.68
5753;BME280;2901;42.140;24.760;2023-04-07T00:18:16;99286.03;;;7.05;57.22
5753;BME280;2901;42.140;24.760;2023-04-07T00:20:42;99288.63;;;7.10;56.71
5753;BME280;2901;42.140;24.760;2023-04-07T00:23:07;99288.63;;;7.08;56.31
5753;BME280;2901;42.140;24.760;2023-04-07T00:25:33;99280.03;;;7.00;56.56
5753;BME280;2901;42.140;24.760;2023-04-07T00:27:58;99283.44;;;6.98;56.66
5753;BME280;2901;42.140;24.760;2023-04-07T00:30:23;99280.84;;;6.96;56.40
5753;BME280;2901;42.140;24.760;2023-04-07T00:32:49;99279.13;;;6.92;56.99
5753;BME280;2901;42.140;24.760;2023-04-07T00:35:16;99275.66;;;6.89;56.22
5753;BME280;2901;42.140;24.760;2023-04-07T00:37:41;99278.25;;;6.89;56.39
5753;BME280;2901;42.140;24.760;2023-04-07T00:40:07;99280.00;;;6.91;56.88
5753;BME280;2901;42.140;24.760;2023-04-07T00:42:33;99282.56;;;6.94;55.88
5753;BME280;2901;42.140;24.760;2023-04-07T00:44:59;99288.56;;;6.93;56.30
5753;BME280;2901;42.140;24.760;2023-04-07T00:47:24;99276.56;;;6.94;56.19
5753;BME280;2901;42.140;24.760;2023-04-07T00:49:50;99285.13;;;6.93;56.10
5753;BME280;2901;42.140;24.760;2023-04-07T00:52:16;99285.13;;;6.91;56.02
5753;BME280;2901;42.140;24.760;2023-04-07T00:54:41;99285.13;;;6.90;55.77
5753;BME280;2901;42.140;24.760;2023-04-07T00:57:08;99283.41;;;6.93;56.71
5753;BME280;2901;42.140;24.760;2023-04-07T00:59:34;99281.69;;;6.91;56.91
5753;BME280;2901;42.140;24.760;2023-04-07T01:05:00;99275.66;;;6.86;56.56
5753;BME280;2901;42.140;24.760;2023-04-07T01:07:39;99278.22;;;6.81;56.39
5753;BME280;2901;42.140;24.760;2023-04-07T01:10:11;99293.63;;;6.73;56.92
5753;BME280;2901;42.140;24.760;2023-04-07T01:12:43;99282.47;;;6.73;56.81
5753;BME280;2901;42.140;24.760;2023-04-07T01:15:12;99272.97;;;6.66;57.89
5753;BME280;2901;42.140;24.760;2023-04-07T01:17:42;99287.53;;;6.62;58.13
5753;BME280;2901;42.140;24.760;2023-04-07T01:20:13;99280.66;;;6.57;57.76
5753;BME280;2901;42.140;24.760;2023-04-07T01:22:50;99280.66;;;6.60;57.00
5753;BME280;2901;42.140;24.760;2023-04-07T01:25:40;99280.63;;;6.54;58.16
5753;BME280;2901;42.140;24.760;2023-04-07T01:31:03;99293.47;;;6.48;58.42
5753;BME280;2901;42.140;24.760;2023-04-07T01:33:31;99287.44;;;6.46;57.55
5753;BME280;2901;42.140;24.760;2023-04-07T01:36:01;99289.13;;;6.38;57.83
5753;BME280;2901;42.140;24.760;2023-04-07T01:38:28;99296.81;;;6.38;59.17
5753;BME280;2901;42.140;24.760;2023-04-07T01:40:55;99292.53;;;6.35;58.92
5753;BME280;2901;42.140;24.760;2023-04-07T01:43:22;99302.84;;;6.41;59.01
5753;BME280;2901;42.140;24.760;2023-04-07T01:45:48;99301.94;;;6.36;58.79
5753;BME280;2901;42.140;24.760;2023-04-07T01:48:15;99299.41;;;6.38;59.05
5753;BME280;2901;42.140;24.760;2023-04-07T01:50:42;99297.66;;;6.35;59.35
5753;BME280;2901;42.140;24.760;2023-04-07T01:53:07;99301.06;;;6.33;58.72
5753;BME280;2901;42.140;24.760;2023-04-07T01:55:33;99295.13;;;6.38;59.24
5753;BME280;2901;42.140;24.760;2023-04-07T01:58:04;99293.34;;;6.33;58.70
5753;BME280;2901;42.140;24.760;2023-04-07T02:00:30;99296.78;;;6.32;59.28
5753;BME280;2901;42.140;24.760;2023-04-07T02:03:03;99301.03;;;6.28;59.16
5753;BME280;2901;42.140;24.760;2023-04-07T02:05:30;99295.03;;;6.24;58.85
5753;BME280;2901;42.140;24.760;2023-04-07T02:08:04;99297.59;;;6.26;59.54
5753;BME280;2901;42.140;24.760;2023-04-07T02:10:34;99289.00;;;6.21;59.34
5753;BME280;2901;42.140;24.760;2023-04-07T02:13:03;99285.50;;;6.16;59.59
5753;BME280;2901;42.140;24.760;2023-04-07T02:15:30;99296.69;;;6.21;59.43
5753;BME280;2901;42.140;24.760;2023-04-07T02:17:59;99299.25;;;6.19;59.82
5753;BME280;2901;42.140;24.760;2023-04-07T02:20:27;99293.28;;;6.22;59.36
5753;BME280;2901;42.140;24.760;2023-04-07T02:22:52;99295.81;;;6.17;58.50
5753;BME280;2901;42.140;24.760;2023-04-07T02:27:49;99292.31;;;6.09;59.35
5753;BME280;2901;42.140;24.760;2023-04-07T02:30:15;99294.97;;;6.18;58.98
5753;BME280;2901;42.140;24.760;2023-04-07T02:32:40;99297.50;;;6.12;58.66
5753;BME280;2901;42.140;24.760;2023-04-07T02:35:06;99286.34;;;6.12;58.89
5753;BME280;2901;42.140;24.760;2023-04-07T02:37:31;99296.63;;;6.09;58.92
5753;BME280;2901;42.140;24.760;2023-04-07T02:39:57;99306.88;;;6.10;59.55
5753;BME280;2901;42.140;24.760;2023-04-07T02:42:22;99299.16;;;6.06;58.98
5753;BME280;2901;42.140;24.760;2023-04-07T02:44:49;99295.72;;;6.05;59.56
5753;BME280;2901;42.140;24.760;2023-04-07T02:47:14;99306.00;;;6.05;59.60
5753;BME280;2901;42.140;24.760;2023-04-07T02:49:40;99300.88;;;6.05;59.69
5753;BME280;2901;42.140;24.760;2023-04-07T02:52:05;99307.72;;;6.09;59.56
5753;BME280;2901;42.140;24.760;2023-04-07T02:54:31;99305.16;;;6.09;59.77
5753;BME280;2901;42.140;24.760;2023-04-07T02:56:56;99307.75;;;6.11;59.75
5753;BME280;2901;42.140;24.760;2023-04-07T02:59:21;99312.06;;;6.12;59.65
5753;BME280;2901;42.140;24.760;2023-04-07T03:01:47;99311.16;;;6.05;59.80
5753;BME280;2901;42.140;24.760;2023-04-07T03:04:12;99303.44;;;6.07;60.05
5753;BME280;2901;42.140;24.760;2023-04-07T03:06:37;99306.88;;;6.06;60.35
5753;BME280;2901;42.140;24.760;2023-04-07T03:09:03;99309.41;;;6.01;60.23
5753;BME280;2901;42.140;24.760;2023-04-07T03:11:28;99310.25;;;6.03;60.29
5753;BME280;2901;42.140;24.760;2023-04-07T03:13:54;99305.13;;;6.03;60.86
5753;BME280;2901;42.140;24.760;2023-04-07T03:16:19;99305.91;;;5.96;60.03
5753;BME280;2901;42.140;24.760;2023-04-07T03:18:45;99313.63;;;5.96;60.64
5753;BME280;2901;42.140;24.760;2023-04-07T03:21:10;99306.78;;;5.97;60.31
5753;BME280;2901;42.140;24.760;2023-04-07T03:23:35;99309.41;;;6.01;59.96
5753;BME280;2901;42.140;24.760;2023-04-07T03:26:01;99306.81;;;6.01;60.53
5753;BME280;2901;42.140;24.760;2023-04-07T03:28:26;99307.66;;;5.99;59.63
5753;BME280;2901;42.140;24.760;2023-04-07T03:30:52;99311.03;;;5.96;60.13
5753;BME280;2901;42.140;24.760;2023-04-07T03:33:17;99311.13;;;6.02;60.68
5753;BME280;2901;42.140;24.760;2023-04-07T03:35:43;99317.97;;;6.03;59.99
5753;BME280;2901;42.140;24.760;2023-04-07T03:38:08;99312.81;;;6.00;60.64
5753;BME280;2901;42.140;24.760;2023-04-07T03:40:33;99312.00;;;6.06;59.86
5753;BME280;2901;42.140;24.760;2023-04-07T03:42:59;99318.84;;;6.04;60.07
5753;BME280;2901;42.140;24.760;2023-04-07T03:45:25;99330.88;;;6.08;59.89
5753;BME280;2901;42.140;24.760;2023-04-07T03:47:50;99322.31;;;6.09;60.27
5753;BME280;2901;42.140;24.760;2023-04-07T03:50:16;99326.59;;;6.08;59.53
5753;BME280;2901;42.140;24.760;2023-04-07T03:52:42;99330.84;;;6.06;59.48
5753;BME280;2901;42.140;24.760;2023-04-07T03:55:07;99329.16;;;6.08;59.71
5753;BME280;2901;42.140;24.760;2023-04-07T03:57:33;99332.59;;;6.09;59.87
5753;BME280;2901;42.140;24.760;2023-04-07T03:59:58;99330.06;;;6.13;60.42
5753;BME280;2901;42.140;24.760;2023-04-07T04:02:24;99343.78;;;6.15;59.86
5753;BME280;2901;42.140;24.760;2023-04-07T04:04:49;99343.78;;;6.14;60.28
5753;BME280;2901;42.140;24.760;2023-04-07T04:07:15;99340.31;;;6.10;60.52
5753;BME280;2901;42.140;24.760;2023-04-07T04:09:40;99339.41;;;6.05;60.13
5753;BME280;2901;42.140;24.760;2023-04-07T04:12:06;99333.38;;;6.00;60.31
5753;BME280;2901;42.140;24.760;2023-04-07T04:14:31;99344.56;;;6.07;60.32
5753;BME280;2901;42.140;24.760;2023-04-07T04:16:56;99346.34;;;6.14;60.33
5753;BME280;2901;42.140;24.760;2023-04-07T04:19:22;99354.88;;;6.13;59.99
5753;BME280;2901;42.140;24.760;2023-04-07T04:21:47;99348.06;;;6.15;59.84
5753;BME280;2901;42.140;24.760;2023-04-07T04:24:13;99352.38;;;6.17;60.32
5753;BME280;2901;42.140;24.760;2023-04-07T04:26:38;99362.69;;;6.20;60.48
5753;BME280;2901;42.140;24.760;2023-04-07T04:29:03;99359.25;;;6.21;60.86
5753;BME280;2901;42.140;24.760;2023-04-07T04:31:29;99362.69;;;6.23;60.56
5753;BME280;2901;42.140;24.760;2023-04-07T04:33:54;99361.81;;;6.20;60.26
5753;BME280;2901;42.140;24.760;2023-04-07T04:36:20;99372.13;;;6.26;59.56
5753;BME280;2901;42.140;24.760;2023-04-07T04:38:45;99361.88;;;6.29;59.40
5753;BME280;2901;42.140;24.760;2023-04-07T04:41:11;99366.22;;;6.35;58.91
5753;BME280;2901;42.140;24.760;2023-04-07T04:43:36;99369.66;;;6.35;59.00
5753;BME280;2901;42.140;24.760;2023-04-07T04:46:01;99367.13;;;6.41;58.13
5753;BME280;2901;42.140;24.760;2023-04-07T04:48:27;99375.69;;;6.39;59.05
5753;BME280;2901;42.140;24.760;2023-04-07T04:50:52;99372.25;;;6.40;58.28
5753;BME280;2901;42.140;24.760;2023-04-07T04:53:17;99371.44;;;6.44;58.99
5753;BME280;2901;42.140;24.760;2023-04-07T04:55:43;99374.88;;;6.46;57.90
5753;BME280;2901;42.140;24.760;2023-04-07T04:58:11;99371.47;;;6.45;58.24
5753;BME280;2901;42.140;24.760;2023-04-07T05:00:36;99372.34;;;6.47;58.01
5753;BME280;2901;42.140;24.760;2023-04-07T05:03:02;99363.78;;;6.48;57.88
5753;BME280;2901;42.140;24.760;2023-04-07T05:05:28;99380.97;;;6.57;57.49
5753;BME280;2901;42.140;24.760;2023-04-07T05:07:53;99390.44;;;6.62;58.04
5753;BME280;2901;42.140;24.760;2023-04-07T05:10:19;99387.94;;;6.70;57.56
5753;BME280;2901;42.140;24.760;2023-04-07T05:12:44;99390.53;;;6.73;56.14
5753;BME280;2901;42.140;24.760;2023-04-07T05:15:10;99394.88;;;6.83;57.24
5753;BME280;2901;42.140;24.760;2023-04-07T05:17:35;99391.50;;;6.90;55.87
5753;BME280;2901;42.140;24.760;2023-04-07T05:20:01;99390.69;;;7.02;55.70
5753;BME280;2901;42.140;24.760;2023-04-07T05:22:27;99400.16;;;7.03;54.40
5753;BME280;2901;42.140;24.760;2023-04-07T05:24:52;99397.66;;;7.16;54.28
5753;BME280;2901;42.140;24.760;2023-04-07T05:27:18;99402.00;;;7.25;53.32
5753;BME280;2901;42.140;24.760;2023-04-07T05:29:43;99401.16;;;7.27;52.21
5753;BME280;2901;42.140;24.760;2023-04-07T05:32:08;99401.19;;;7.34;51.88
5753;BME280;2901;42.140;24.760;2023-04-07T05:34:34;99401.25;;;7.49;51.73
5753;BME280;2901;42.140;24.760;2023-04-07T05:36:59;99399.59;;;7.63;50.91
5753;BME280;2901;42.140;24.760;2023-04-07T05:39:25;99403.06;;;7.69;50.16
5753;BME280;2901;42.140;24.760;2023-04-07T05:41:50;99397.94;;;7.88;49.51
5753;BME280;2901;42.140;24.760;2023-04-07T05:44:16;99400.53;;;7.94;49.25
5753;BME280;2901;42.140;24.760;2023-04-07T05:46:41;99391.09;;;7.94;48.31
5753;BME280;2901;42.140;24.760;2023-04-07T05:49:07;99408.31;;;8.03;48.41
5753;BME280;2901;42.140;24.760;2023-04-07T05:51:32;99385.09;;;7.98;47.12
5753;BME280;2901;42.140;24.760;2023-04-07T05:54:00;99403.13;;;7.98;47.29
5753;BME280;2901;42.140;24.760;2023-04-07T05:56:26;99410.03;;;8.08;47.10
5753;BME280;2901;42.140;24.760;2023-04-07T05:58:51;99402.31;;;8.13;47.22
5753;BME280;2901;42.140;24.760;2023-04-07T06:01:17;99401.44;;;8.15;46.96
5753;BME280;2901;42.140;24.760;2023-04-07T06:03:43;99403.19;;;8.25;46.13
5753;BME280;2901;42.140;24.760;2023-04-07T06:06:09;99399.78;;;8.29;47.21
5753;BME280;2901;42.140;24.760;2023-04-07T06:08:34;99401.44;;;8.21;45.74
5753;BME280;2901;42.140;24.760;2023-04-07T06:11:00;99399.78;;;8.37;46.69
5753;BME280;2901;42.140;24.760;2023-04-07T06:13:26;99396.38;;;8.43;47.39
5753;BME280;2901;42.140;24.760;2023-04-07T06:15:53;99411.81;;;8.64;46.57
5753;BME280;2901;42.140;24.760;2023-04-07T06:18:19;99405.81;;;8.54;46.31
5753;BME280;2901;42.140;24.760;2023-04-07T06:20:45;99406.66;;;8.64;45.69
5753;BME280;2901;42.140;24.760;2023-04-07T06:23:11;99404.06;;;8.56;45.61
5753;BME280;2901;42.140;24.760;2023-04-07T06:25:36;99403.22;;;8.68;45.83
5753;BME280;2901;42.140;24.760;2023-04-07T06:28:02;99409.22;;;8.73;45.89
5753;BME280;2901;42.140;24.760;2023-04-07T06:30:27;99418.72;;;8.74;45.50
5753;BME280;2901;42.140;24.760;2023-04-07T06:32:52;99418.72;;;8.59;44.31
5753;BME280;2901;42.140;24.760;2023-04-07T06:35:18;99420.44;;;8.55;44.75
5753;BME280;2901;42.140;24.760;2023-04-07T06:37:43;99419.59;;;8.59;45.15
5753;BME280;2901;42.140;24.760;2023-04-07T06:40:09;99411.81;;;8.70;44.95
5753;BME280;2901;42.140;24.760;2023-04-07T06:42:34;99421.28;;;8.77;44.70
5753;BME280;2901;42.140;24.760;2023-04-07T06:44:59;99423.84;;;8.83;45.19
5753;BME280;2901;42.140;24.760;2023-04-07T06:47:25;99422.16;;;8.85;44.07
5753;BME280;2901;42.140;24.760;2023-04-07T06:49:50;99420.41;;;8.87;44.09
5753;BME280;2901;42.140;24.760;2023-04-07T06:52:16;99422.16;;;8.82;42.96
5753;BME280;2901;42.140;24.760;2023-04-07T06:54:41;99423.88;;;8.84;43.68
5753;BME280;2901;42.140;24.760;2023-04-07T06:57:07;99417.00;;;8.88;43.36
5753;BME280;2901;42.140;24.760;2023-04-07T06:59:39;99426.44;;;8.94;43.00
5753;BME280;2901;42.140;24.760;2023-04-07T07:02:04;99429.03;;;8.86;42.21
5753;BME280;2901;42.140;24.760;2023-04-07T07:04:32;99434.19;;;8.98;42.11
5753;BME280;2901;42.140;24.760;2023-04-07T07:06:57;99435.91;;;9.11;42.23
5753;BME280;2901;42.140;24.760;2023-04-07T07:09:22;99427.31;;;9.02;42.79
5753;BME280;2901;42.140;24.760;2023-04-07T07:11:48;99434.19;;;8.98;42.22
5753;BME280;2901;42.140;24.760;2023-04-07T07:14:13;99432.47;;;8.97;42.40
5753;BME280;2901;42.140;24.760;2023-04-07T07:16:39;99438.50;;;8.90;41.99
5753;BME280;2901;42.140;24.760;2023-04-07T07:19:05;99442.81;;;8.99;42.68
5753;BME280;2901;42.140;24.760;2023-04-07T07:21:30;99432.47;;;9.00;42.22
5753;BME280;2901;42.140;24.760;2023-04-07T07:23:56;99433.28;;;9.16;42.36
5753;BME280;2901;42.140;24.760;2023-04-07T07:26:22;99432.38;;;9.29;41.94
5753;BME280;2901;42.140;24.760;2023-04-07T07:28:47;99438.47;;;9.20;41.62
5753;BME280;2901;42.140;24.760;2023-04-07T07:31:13;99425.53;;;9.17;42.63
5753;BME280;2901;42.140;24.760;2023-04-07T07:33:40;99435.00;;;9.30;42.79
5753;BME280;2901;42.140;24.760;2023-04-07T07:36:06;99431.50;;;9.36;42.89
5753;BME280;2901;42.140;24.760;2023-04-07T07:38:32;99429.78;;;9.43;42.57
5753;BME280;2901;42.140;24.760;2023-04-07T07:40:57;99422.84;;;9.61;42.44
5753;BME280;2901;42.140;24.760;2023-04-07T07:43:23;99427.03;;;9.82;41.47
5753;BME280;2901;42.140;24.760;2023-04-07T07:45:48;99435.69;;;9.81;41.01
5753;BME280;2901;42.140;24.760;2023-04-07T07:48:13;99430.47;;;9.87;41.13
5753;BME280;2901;42.140;24.760;2023-04-07T07:50:39;99422.59;;;10.05;40.71
5753;BME280;2901;42.140;24.760;2023-04-07T07:53:05;99426.00;;;10.22;40.32
5753;BME280;2901;42.140;24.760;2023-04-07T07:55:30;99424.22;;;10.30;39.68
5753;BME280;2901;42.140;24.760;2023-04-07T07:57:55;99427.66;;;10.28;40.54
5753;BME280;2901;42.140;24.760;2023-04-07T08:00:21;99435.50;;;10.11;41.23
5753;BME280;2901;42.140;24.760;2023-04-07T08:02:48;99429.53;;;10.02;40.73
5753;BME280;2901;42.140;24.760;2023-04-07T08:05:13;99426.06;;;10.07;40.88
5753;BME280;2901;42.140;24.760;2023-04-07T08:07:39;99417.34;;;10.26;40.92
5753;BME280;2901;42.140;24.760;2023-04-07T08:10:04;99416.31;;;10.49;40.90
5753;BME280;2901;42.140;24.760;2023-04-07T08:12:30;99423.97;;;10.62;40.73
5753;BME280;2901;42.140;24.760;2023-04-07T08:14:55;99416.28;;;10.56;41.00
5753;BME280;2901;42.140;24.760;2023-04-07T08:17:21;99411.03;;;10.62;40.64
5753;BME280;2901;42.140;24.760;2023-04-07T08:19:46;99413.47;;;10.82;39.87
5753;BME280;2901;42.140;24.760;2023-04-07T08:22:11;99420.22;;;11.00;39.34
5753;BME280;2901;42.140;24.760;2023-04-07T08:24:37;99417.66;;;10.95;37.87
5753;BME280;2901;42.140;24.760;2023-04-07T08:27:02;99416.00;;;10.88;37.96
5753;BME280;2901;42.140;24.760;2023-04-07T08:29:28;99405.69;;;10.82;38.49
5753;BME280;2901;42.140;24.760;2023-04-07T08:31:53;99408.19;;;10.92;38.62
5753;BME280;2901;42.140;24.760;2023-04-07T08:34:18;99398.63;;;10.99;38.89
5753;BME280;2901;42.140;24.760;2023-04-07T08:36:45;99399.50;;;11.00;38.48
5753;BME280;2901;42.140;24.760;2023-04-07T08:39:11;99387.34;;;11.03;38.80
5753;BME280;2901;42.140;24.760;2023-04-07T08:41:37;99397.56;;;11.17;38.13
5753;BME280;2901;42.140;24.760;2023-04-07T08:44:04;99390.72;;;11.11;38.97
5753;BME280;2901;42.140;24.760;2023-04-07T08:46:32;99388.75;;;11.33;38.25
5753;BME280;2901;42.140;24.760;2023-04-07T08:48:58;99393.09;;;11.32;39.06
5753;BME280;2901;42.140;24.760;2023-04-07T08:51:29;99398.50;;;11.13;39.02
5753;BME280;2901;42.140;24.760;2023-04-07T08:54:12;99391.53;;;11.16;39.83
5753;BME280;2901;42.140;24.760;2023-04-07T08:56:40;99387.97;;;11.23;39.44
5753;BME280;2901;42.140;24.760;2023-04-07T08:59:08;99381.94;;;11.26;38.78
5753;BME280;2901;42.140;24.760;2023-04-07T09:01:34;99387.72;;;11.49;38.21
5753;BME280;2901;42.140;24.760;2023-04-07T09:04:04;99383.31;;;11.54;37.72
5753;BME280;2901;42.140;24.760;2023-04-07T09:06:31;99386.69;;;11.62;38.38
5753;BME280;2901;42.140;24.760;2023-04-07T09:09:00;99383.91;;;11.76;37.97
5753;BME280;2901;42.140;24.760;2023-04-07T09:11:27;99375.22;;;11.80;37.14
5753;BME280;2901;42.140;24.760;2023-04-07T09:13:53;99383.06;;;11.78;37.06
5753;BME280;2901;42.140;24.760;2023-04-07T09:16:19;99376.00;;;11.88;37.98
5753;BME280;2901;42.140;24.760;2023-04-07T09:18:45;99381.81;;;12.04;37.06
5753;BME280;2901;42.140;24.760;2023-04-07T09:21:11;99383.41;;;12.12;36.36
5753;BME280;2901;42.140;24.760;2023-04-07T09:23:39;99389.19;;;12.32;36.40
5753;BME280;2901;42.140;24.760;2023-04-07T09:26:17;99381.94;;;12.53;36.58
5753;BME280;2901;42.140;24.760;2023-04-07T09:28:57;99378.81;;;12.83;36.11
5753;BME280;2901;42.140;24.760;2023-04-07T09:31:46;99381.19;;;12.96;36.14
5753;BME280;2901;42.140;24.760;2023-04-07T09:34:24;99371.53;;;13.03;36.60
5753;BME280;2901;42.140;24.760;2023-04-07T09:36:49;99373.34;;;12.98;35.75
5753;BME280;2901;42.140;24.760;2023-04-07T09:39:15;99372.19;;;12.67;35.34
5753;BME280;2901;42.140;24.760;2023-04-07T09:41:40;99374.09;;;12.56;35.08
5753;BME280;2901;42.140;24.760;2023-04-07T09:44:06;99366.47;;;12.45;36.13
5753;BME280;2901;42.140;24.760;2023-04-07T09:46:32;99365.16;;;12.72;36.25
5753;BME280;2901;42.140;24.760;2023-04-07T09:49:02;99368.13;;;12.98;34.87
5753;BME280;2901;42.140;24.760;2023-04-07T09:51:30;99362.47;;;13.25;34.68
5753;BME280;2901;42.140;24.760;2023-04-07T09:53:58;99348.13;;;13.49;34.74
5753;BME280;2901;42.140;24.760;2023-04-07T09:56:23;99338.56;;;13.49;34.49
5753;BME280;2901;42.140;24.760;2023-04-07T09:58:51;99357.50;;;13.56;34.67
5753;BME280;2901;42.140;24.760;2023-04-07T10:01:20;99355.53;;;13.67;33.90
5753;BME280;2901;42.140;24.760;2023-04-07T10:03:47;99355.31;;;13.78;34.35
5753;BME280;2901;42.140;24.760;2023-04-07T10:06:13;99355.22;;;13.81;33.55
5753;BME280;2901;42.140;24.760;2023-04-07T10:08:40;99355.81;;;13.93;33.46
5753;BME280;2901;42.140;24.760;2023-04-07T10:11:07;99353.13;;;13.98;33.37
5753;BME280;2901;42.140;24.760;2023-04-07T10:13:34;99364.16;;;14.09;33.63
5753;BME280;2901;42.140;24.760;2023-04-07T10:16:03;99362.47;;;14.07;33.38
5753;BME280;2901;42.140;24.760;2023-04-07T10:18:30;99359.59;;;14.19;32.85
5753;BME280;2901;42.140;24.760;2023-04-07T10:20:58;99357.00;;;14.19;33.28
5753;BME280;2901;42.140;24.760;2023-04-07T10:23:31;99349.34;;;14.11;33.02
5753;BME280;2901;42.140;24.760;2023-04-07T10:26:02;99355.78;;;14.33;33.09
5753;BME280;2901;42.140;24.760;2023-04-07T10:28:29;99346.06;;;14.40;32.79
5753;BME280;2901;42.140;24.760;2023-04-07T10:30:56;99355.81;;;14.67;32.84
5753;BME280;2901;42.140;24.760;2023-04-07T10:33:51;99349.84;;;14.96;32.82
5753;BME280;2901;42.140;24.760;2023-04-07T10:36:18;99349.06;;;14.92;32.72
5753;BME280;2901;42.140;24.760;2023-04-07T10:41:38;99352.06;;;15.11;32.49
5753;BME280;2901;42.140;24.760;2023-04-07T10:44:05;99351.91;;;14.85;32.67
5753;BME280;2901;42.140;24.760;2023-04-07T10:49:16;99341.81;;;14.71;33.30
5753;BME280;2901;42.140;24.760;2023-04-07T10:51:42;99343.66;;;14.68;33.51
5753;BME280;2901;42.140;24.760;2023-04-07T10:54:20;99344.19;;;14.80;33.52
5753;BME280;2901;42.140;24.760;2023-04-07T10:59:30;99342.09;;;14.61;34.13
5753;BME280;2901;42.140;24.760;2023-04-07T11:04:47;99341.22;;;14.60;33.31
5753;BME280;2901;42.140;24.760;2023-04-07T11:07:13;99343.94;;;14.55;33.66
5753;BME280;2901;42.140;24.760;2023-04-07T11:09:40;99343.41;;;14.43;34.15
5753;BME280;2901;42.140;24.760;2023-04-07T11:12:06;99343.66;;;14.31;34.23
5753;BME280;2901;42.140;24.760;2023-04-07T11:14:33;99338.19;;;14.43;34.15
5753;BME280;2901;42.140;24.760;2023-04-07T11:17:01;99334.53;;;14.50;34.58
5753;BME280;2901;42.140;24.760;2023-04-07T11:19:27;99338.63;;;14.60;34.13
5753;BME280;2901;42.140;24.760;2023-04-07T11:22:12;99334.78;;;14.75;34.46
5753;BME280;2901;42.140;24.760;2023-04-07T11:24:39;99331.50;;;14.99;33.91
5753;BME280;2901;42.140;24.760;2023-04-07T11:27:04;99330.19;;;15.15;33.58
5753;BME280;2901;42.140;24.760;2023-04-07T11:29:31;99336.63;;;15.34;32.99
5753;BME280;2901;42.140;24.760;2023-04-07T11:31:58;99327.97;;;15.32;33.01
5753;BME280;2901;42.140;24.760;2023-04-07T11:34:34;99328.72;;;15.37;32.78
5753;BME280;2901;42.140;24.760;2023-04-07T11:37:22;99325.69;;;15.52;32.61
5753;BME280;2901;42.140;24.760;2023-04-07T11:39:56;99321.19;;;15.27;33.51
5753;BME280;2901;42.140;24.760;2023-04-07T11:42:36;99323.94;;;15.53;32.94
5753;BME280;2901;42.140;24.760;2023-04-07T11:45:03;99316.69;;;15.63;32.85
5753;BME280;2901;42.140;24.760;2023-04-07T11:47:36;99318.31;;;15.67;32.74
5753;BME280;2901;42.140;24.760;2023-04-07T11:50:02;99318.00;;;15.77;32.24
5753;BME280;2901;42.140;24.760;2023-04-07T11:52:27;99309.63;;;15.94;32.16
5753;BME280;2901;42.140;24.760;2023-04-07T11:54:53;99313.75;;;16.01;32.15
5753;BME280;2901;42.140;24.760;2023-04-07T11:57:28;99309.53;;;15.97;32.61
5753;BME280;2901;42.140;24.760;2023-04-07T12:00:10;99307.38;;;15.54;33.29
5753;BME280;2901;42.140;24.760;2023-04-07T12:02:36;99309.03;;;15.56;33.99
5753;BME280;2901;42.140;24.760;2023-04-07T12:05:05;99311.66;;;15.56;33.64
5753;BME280;2901;42.140;24.760;2023-04-07T12:07:31;99314.72;;;15.71;33.66
5753;BME280;2901;42.140;24.760;2023-04-07T12:09:57;99314.28;;;15.84;33.25
5753;BME280;2901;42.140;24.760;2023-04-07T12:12:27;99303.38;;;15.99;32.76
5753;BME280;2901;42.140;24.760;2023-04-07T12:14:54;99301.50;;;16.03;32.41
5753;BME280;2901;42.140;24.760;2023-04-07T12:17:24;99311.41;;;15.93;33.03
5753;BME280;2901;42.140;24.760;2023-04-07T12:19:50;99320.50;;;16.08;32.81
5753;BME280;2901;42.140;24.760;2023-04-07T12:22:16;99311.06;;;16.30;32.27
5753;BME280;2901;42.140;24.760;2023-04-07T12:24:42;99314.13;;;15.89;32.47
5753;BME280;2901;42.140;24.760;2023-04-07T12:27:07;99308.25;;;16.10;32.82
5753;BME280;2901;42.140;24.760;2023-04-07T12:29:33;99297.88;;;16.07;33.66
5753;BME280;2901;42.140;24.760;2023-04-07T12:31:58;99304.19;;;15.74;33.76
5753;BME280;2901;42.140;24.760;2023-04-07T12:34:25;99303.44;;;15.38;34.29
5753;BME280;2901;42.140;24.760;2023-04-07T12:36:51;99306.34;;;15.60;34.42
5753;BME280;2901;42.140;24.760;2023-04-07T12:39:17;99300.94;;;15.66;34.57
5753;BME280;2901;42.140;24.760;2023-04-07T12:41:42;99298.31;;;15.66;34.11
5753;BME280;2901;42.140;24.760;2023-04-07T12:44:10;99299.78;;;15.74;34.98
5753;BME280;2901;42.140;24.760;2023-04-07T12:46:35;99301.31;;;15.81;34.93
5753;BME280;2901;42.140;24.760;2023-04-07T12:49:01;99304.34;;;15.95;35.23
5753;BME280;2901;42.140;24.760;2023-04-07T12:51:27;99289.44;;;15.99;35.74
5753;BME280;2901;42.140;24.760;2023-04-07T12:53:52;99290.88;;;16.09;34.84
5753;BME280;2901;42.140;24.760;2023-04-07T12:56:18;99279.50;;;15.84;36.35
5753;BME280;2901;42.140;24.760;2023-04-07T12:58:46;99288.16;;;15.56;36.79
5753;BME280;2901;42.140;24.760;2023-04-07T13:01:12;99295.03;;;15.59;36.93
5753;BME280;2901;42.140;24.760;2023-04-07T13:03:38;99285.91;;;15.74;36.60
5753;BME280;2901;42.140;24.760;2023-04-07T13:06:04;99281.47;;;15.76;36.95
5753;BME280;2901;42.140;24.760;2023-04-07T13:08:29;99282.44;;;15.44;37.61
5753;BME280;2901;42.140;24.760;2023-04-07T13:10:55;99285.69;;;15.52;37.65
5753;BME280;2901;42.140;24.760;2023-04-07T13:13:21;99281.09;;;15.60;37.85
5753;BME280;2901;42.140;24.760;2023-04-07T13:15:47;99281.47;;;15.76;37.60
5753;BME280;2901;42.140;24.760;2023-04-07T13:18:12;99285.13;;;15.70;37.72
5753;BME280;2901;42.140;24.760;2023-04-07T13:20:37;99280.16;;;15.63;38.08
5753;BME280;2901;42.140;24.760;2023-04-07T13:23:03;99277.91;;;15.78;38.22
5753;BME280;2901;42.140;24.760;2023-04-07T13:25:29;99281.94;;;15.88;38.51
5753;BME280;2901;42.140;24.760;2023-04-07T13:27:55;99288.47;;;16.03;38.26
5753;BME280;2901;42.140;24.760;2023-04-07T13:30:20;99281.38;;;16.33;37.15
5753;BME280;2901;42.140;24.760;2023-04-07T13:32:45;99271.88;;;16.56;37.26
5753;BME280;2901;42.140;24.760;2023-04-07T13:35:17;99275.72;;;16.71;36.62